Time;durP1;ratioP1;P1;durP2;ratioP2;P2;SDS_P1;SDS_P2;PMS_P1;PMS_P2;Temp;Humidity;BMP_temperature;BMP_pressure;BME280_temperature;BME280_humidity;BME280_pressure;Samples;Min_cycle;Max_cycle;Signal;HPM_P1;HPM_P2
2021/04/08 00:00:27;;;;;;;10.80;1.97;;;3.20;83.30;;;;;;5112743;28;20292;-70
2021/04/08 00:02:53;;;;;;;7.87;1.90;;;3.20;83.30;;;;;;5112522;28;20492;-71
2021/04/08 00:05:19;;;;;;;12.20;2.10;;;3.20;83.30;;;;;;5112669;28;20075;-71
2021/04/08 00:07:44;;;;;;;8.17;2.30;;;3.30;83.40;;;;;;5112096;28;20052;-70
2021/04/08 00:10:11;;;;;;;10.23;2.27;;;3.30;83.40;;;;;;5112285;28;20411;-70
2021/04/08 00:12:38;;;;;;;12.03;2.50;;;3.40;83.40;;;;;;5113012;28;20108;-71
2021/04/08 00:15:12;;;;;;;9.90;1.50;;;3.40;83.40;;;;;;5111795;28;20301;-70
2021/04/08 00:17:38;;;;;;;6.87;1.07;;;3.30;83.40;;;;;;5112614;28;20350;-71
2021/04/08 00:20:13;;;;;;;6.53;1.63;;;3.20;83.80;;;;;;5112232;28;20294;-70
2021/04/08 00:22:39;;;;;;;15.47;2.20;;;3.20;84.10;;;;;;5112202;28;20384;-70
2021/04/08 00:25:05;;;;;;;8.67;1.67;;;3.20;84.30;;;;;;5111781;28;20388;-70
2021/04/08 00:27:31;;;;;;;7.07;2.17;;;3.20;84.30;;;;;;5112773;28;20407;-70
2021/04/08 00:29:56;;;;;;;8.43;1.60;;;3.30;84.40;;;;;;5111237;27;20319;-70
2021/04/08 00:32:22;;;;;;;11.77;2.97;;;3.40;84.40;;;;;;5112558;28;20071;-70
2021/04/08 00:34:48;;;;;;;14.13;2.10;;;3.40;84.40;;;;;;5112033;28;20456;-70
2021/04/08 00:37:13;;;;;;;7.10;1.67;;;3.50;84.30;;;;;;5111397;27;20051;-70
2021/04/08 00:39:39;;;;;;;11.00;1.70;;;3.40;84.40;;;;;;5112613;28;20123;-70
2021/04/08 00:42:06;;;;;;;10.67;1.80;;;3.30;84.30;;;;;;5111350;28;20044;-70
2021/04/08 00:44:32;;;;;;;12.60;2.90;;;3.30;84.70;;;;;;5112255;28;20048;-70
2021/04/08 00:46:58;;;;;;;9.13;1.80;;;3.30;84.80;;;;;;5111703;28;20324;-70
2021/04/08 00:49:23;;;;;;;12.77;2.30;;;3.40;84.70;;;;;;5111749;28;20043;-70
2021/04/08 00:51:49;;;;;;;13.17;2.20;;;3.40;84.50;;;;;;5111379;28;20134;-70
2021/04/08 00:54:16;;;;;;;11.87;2.30;;;3.40;84.30;;;;;;5112172;28;20139;-70
2021/04/08 00:56:42;;;;;;;11.37;2.40;;;3.40;84.50;;;;;;5111452;28;20060;-70
2021/04/08 00:59:08;;;;;;;10.37;1.90;;;3.40;84.40;;;;;;5111666;28;20293;-70
2021/04/08 01:01:34;;;;;;;13.97;2.00;;;3.30;84.30;;;;;;5112060;28;20380;-70
2021/04/08 01:04:00;;;;;;;9.60;2.80;;;3.30;84.30;;;;;;5110797;28;20047;-70
2021/04/08 01:06:26;;;;;;;15.30;3.00;;;3.30;84.50;;;;;;5112096;28;20134;-70
2021/04/08 01:08:52;;;;;;;16.87;3.37;;;3.20;84.50;;;;;;5111927;28;20040;-70
2021/04/08 01:11:17;;;;;;;10.87;2.27;;;3.20;84.70;;;;;;5111318;28;20067;-70
2021/04/08 01:13:43;;;;;;;15.83;2.47;;;3.10;84.80;;;;;;5111603;28;20097;-70
2021/04/08 01:16:14;;;;;;;12.30;2.23;;;3.10;84.80;;;;;;5111408;28;20065;-70
2021/04/08 01:18:55;;;;;;;19.83;3.60;;;3.10;85.00;;;;;;5111418;28;20696;-70
2021/04/08 01:21:29;;;;;;;15.30;3.20;;;3.10;84.90;;;;;;5112160;28;20153;-70
2021/04/08 01:24:20;;;;;;;11.33;2.50;;;3.00;85.00;;;;;;5111333;28;20297;-70
2021/04/08 01:27:17;;;;;;;14.93;3.23;;;3.00;85.10;;;;;;5111307;28;20309;-70
2021/04/08 01:30:10;;;;;;;12.97;2.27;;;3.00;85.30;;;;;;5111993;28;20316;-70
2021/04/08 01:32:41;;;;;;;10.77;2.30;;;3.00;85.60;;;;;;5111319;28;20341;-70
2021/04/08 01:35:09;;;;;;;11.97;2.50;;;3.00;85.50;;;;;;5111480;28;20302;-70
2021/04/08 01:37:51;;;;;;;12.27;3.60;;;3.00;85.60;;;;;;5111570;28;20301;-70
2021/04/08 01:40:18;;;;;;;11.20;2.10;;;3.10;85.90;;;;;;5110858;28;20297;-70
2021/04/08 01:42:47;;;;;;;9.50;1.97;;;3.10;85.90;;;;;;5111579;28;20346;-70
2021/04/08 01:45:16;;;;;;;9.00;1.93;;;3.00;85.90;;;;;;5110825;28;20313;-70
2021/04/08 01:47:44;;;;;;;11.30;2.13;;;3.00;86.20;;;;;;5111076;28;20418;-70
2021/04/08 01:50:11;;;;;;;16.47;2.03;;;2.90;86.40;;;;;;5111194;28;20294;-70
2021/04/08 01:52:41;;;;;;;10.03;2.00;;;2.90;86.40;;;;;;5111210;28;20309;-70
2021/04/08 01:55:08;;;;;;;10.17;1.80;;;2.90;86.60;;;;;;5111274;28;20422;-70
2021/04/08 01:57:37;;;;;;;10.67;1.90;;;2.80;86.70;;;;;;5111703;28;20301;-69
2021/04/08 02:00:06;;;;;;;11.87;2.03;;;2.80;86.90;;;;;;5110532;28;20316;-70
2021/04/08 02:02:33;;;;;;;7.13;1.60;;;2.80;87.20;;;;;;5111202;28;20774;-70
2021/04/08 02:04:59;;;;;;;7.53;1.67;;;2.80;87.20;;;;;;5113937;28;20300;-69
2021/04/08 02:07:25;;;;;;;9.00;1.73;;;2.90;87.40;;;;;;5114885;28;20293;-70
2021/04/08 02:09:53;;;;;;;11.23;1.97;;;2.90;87.00;;;;;;5114713;28;20774;-70
2021/04/08 02:12:19;;;;;;;7.97;1.57;;;2.90;87.10;;;;;;5114932;28;20342;-69
2021/04/08 02:14:46;;;;;;;7.07;1.70;;;2.90;87.20;;;;;;5114479;28;20300;-70
2021/04/08 02:17:16;;;;;;;11.63;1.77;;;2.90;87.10;;;;;;5114461;28;20801;-69
2021/04/08 02:19:44;;;;;;;10.73;2.00;;;3.00;87.20;;;;;;5115027;28;20649;-70
2021/04/08 02:22:10;;;;;;;4.97;1.00;;;3.00;86.90;;;;;;5114231;28;20362;-70
2021/04/08 02:24:36;;;;;;;6.77;1.40;;;3.00;86.90;;;;;;5115134;28;20364;-70
2021/04/08 02:27:04;;;;;;;6.30;1.43;;;3.00;86.90;;;;;;5114452;28;20048;-70
2021/04/08 02:29:32;;;;;;;7.63;1.80;;;3.00;86.70;;;;;;5114161;28;20662;-70
2021/04/08 02:31:59;;;;;;;5.60;1.30;;;3.10;86.70;;;;;;5114499;28;20373;-70
2021/04/08 02:34:25;;;;;;;6.03;1.37;;;3.10;86.70;;;;;;5114762;28;20378;-70
2021/04/08 02:36:50;;;;;;;5.50;1.40;;;3.10;86.50;;;;;;5114424;28;20746;-70
2021/04/08 02:39:16;;;;;;;6.43;1.40;;;3.10;86.30;;;;;;5114599;28;20055;-70
2021/04/08 02:41:46;;;;;;;6.07;1.13;;;3.10;86.10;;;;;;5113958;28;20058;-70
2021/04/08 02:44:13;;;;;;;7.87;1.00;;;3.20;86.20;;;;;;5114108;28;20048;-70
2021/04/08 02:46:39;;;;;;;6.33;1.10;;;3.20;86.00;;;;;;5114744;28;20402;-70
2021/04/08 02:49:06;;;;;;;7.83;1.37;;;3.20;85.90;;;;;;5113689;27;20370;-69
2021/04/08 02:51:48;;;;;;;5.83;1.00;;;3.20;85.70;;;;;;5114254;28;20351;-70
2021/04/08 02:54:36;;;;;;;5.40;1.20;;;3.20;85.70;;;;;;5114231;27;20305;-69
2021/04/08 02:57:03;;;;;;;9.47;1.43;;;3.10;85.60;;;;;;5113314;28;20762;-70
2021/04/08 02:59:32;;;;;;;6.43;1.43;;;3.20;85.70;;;;;;5114321;28;20375;-69
2021/04/08 03:02:20;;;;;;;9.50;1.50;;;3.10;85.60;;;;;;5113916;27;20838;-70
2021/04/08 03:04:48;;;;;;;5.70;1.13;;;3.10;85.60;;;;;;5113249;28;20300;-69
2021/04/08 03:07:20;;;;;;;4.20;1.30;;;3.10;85.60;;;;;;5113972;28;20385;-69
2021/04/08 03:09:47;;;;;;;5.40;1.40;;;3.10;85.60;;;;;;5113396;28;20770;-70
2021/04/08 03:12:15;;;;;;;6.80;1.43;;;3.10;85.60;;;;;;5113746;27;20329;-69
2021/04/08 03:14:47;;;;;;;12.37;2.80;;;3.10;85.80;;;;;;5113681;28;20299;-69
2021/04/08 03:17:15;;;;;;;8.23;1.25;;;3.10;85.80;;;;;;5113098;28;20294;-69
2021/04/08 03:19:43;;;;;;;7.80;1.37;;;3.10;85.80;;;;;;5113598;28;20143;-69
2021/04/08 03:22:09;;;;;;;6.90;1.30;;;3.20;85.90;;;;;;5113891;28;20316;-69
2021/04/08 03:24:37;;;;;;;7.53;1.37;;;3.20;85.90;;;;;;5113555;28;20304;-69
2021/04/08 03:27:04;;;;;;;4.57;1.20;;;3.20;85.90;;;;;;5112970;28;20650;-69
2021/04/08 03:29:31;;;;;;;5.53;2.40;;;3.20;85.70;;;;;;5113721;27;20294;-69
2021/04/08 03:32:00;;;;;;;10.83;1.60;;;3.30;85.90;;;;;;5112602;28;20312;-69
2021/04/08 03:34:26;;;;;;;10.00;1.90;;;3.30;85.80;;;;;;5113578;28;20294;-69
2021/04/08 03:36:52;;;;;;;7.57;1.47;;;3.30;85.70;;;;;;5113433;28;20290;-69
2021/04/08 03:39:18;;;;;;;7.07;1.90;;;3.30;85.50;;;;;;5112592;28;20134;-70
2021/04/08 03:41:45;;;;;;;7.67;1.83;;;3.30;85.40;;;;;;5113347;28;20309;-69
2021/04/08 03:44:15;;;;;;;6.67;1.40;;;3.30;85.40;;;;;;5113106;28;20376;-69
2021/04/08 03:46:43;;;;;;;9.50;1.37;;;3.20;85.40;;;;;;5112376;28;20309;-69
2021/04/08 03:49:11;;;;;;;8.10;2.30;;;3.20;85.50;;;;;;5113223;28;20297;-69
2021/04/08 03:51:37;;;;;;;6.97;1.70;;;3.20;85.40;;;;;;5113301;28;20844;-69
2021/04/08 03:54:09;;;;;;;7.53;1.80;;;3.20;85.40;;;;;;5111915;28;20774;-69
2021/04/08 03:56:39;;;;;;;6.77;1.60;;;3.30;85.60;;;;;;5113276;28;20684;-69
2021/04/08 03:59:06;;;;;;;7.27;1.80;;;3.20;85.50;;;;;;5111966;28;20684;-69
2021/04/08 04:01:35;;;;;;;5.97;1.17;;;3.30;85.40;;;;;;5113098;28;20304;-69
2021/04/08 04:04:03;;;;;;;8.10;1.30;;;3.30;85.30;;;;;;5112503;27;20298;-70
2021/04/08 04:06:31;;;;;;;5.37;1.33;;;3.30;85.20;;;;;;5112870;28;20670;-69
2021/04/08 04:08:57;;;;;;;8.23;1.60;;;3.30;85.00;;;;;;5112319;28;20312;-69
2021/04/08 04:11:23;;;;;;;9.63;1.70;;;3.30;85.00;;;;;;5112890;28;20297;-69
2021/04/08 04:13:51;;;;;;;5.13;1.23;;;3.30;84.90;;;;;;5112181;28;20285;-69
2021/04/08 04:16:19;;;;;;;7.57;1.57;;;3.30;84.90;;;;;;5112174;28;20309;-69
2021/04/08 04:18:45;;;;;;;8.33;1.67;;;3.40;84.90;;;;;;5112575;28;20286;-69
2021/04/08 04:21:11;;;;;;;9.07;1.73;;;3.40;84.90;;;;;;5111999;28;20383;-69
2021/04/08 04:23:37;;;;;;;8.20;2.40;;;3.40;84.80;;;;;;5112445;28;20163;-69
2021/04/08 04:26:03;;;;;;;9.30;1.43;;;3.40;84.70;;;;;;5111322;28;20052;-69
2021/04/08 04:28:29;;;;;;;9.03;1.40;;;3.50;84.50;;;;;;5111809;28;20297;-69
2021/04/08 04:30:56;;;;;;;11.43;2.00;;;3.50;84.40;;;;;;5112133;28;20044;-69
2021/04/08 04:33:22;;;;;;;6.70;1.80;;;3.50;84.30;;;;;;5112515;28;20297;-69
2021/04/08 04:35:48;;;;;;;8.77;2.00;;;3.60;84.30;;;;;;5111536;28;20132;-69
2021/04/08 04:38:13;;;;;;;9.10;2.20;;;3.60;84.20;;;;;;5112033;28;20327;-69
2021/04/08 04:40:39;;;;;;;9.43;1.27;;;3.60;84.30;;;;;;5112318;28;20043;-69
2021/04/08 04:43:05;;;;;;;5.73;1.23;;;3.60;84.30;;;;;;5110876;28;20046;-69
2021/04/08 04:45:35;;;;;;;8.33;1.60;;;3.60;84.30;;;;;;5112291;28;20416;-70
2021/04/08 04:48:00;;;;;;;6.90;1.60;;;3.70;84.30;;;;;;5111588;28;20301;-69
2021/04/08 04:50:28;;;;;;;8.50;2.00;;;3.70;84.00;;;;;;5111686;28;20054;-69
2021/04/08 04:52:53;;;;;;;11.60;1.87;;;3.70;84.00;;;;;;5111981;28;20130;-69
2021/04/08 04:55:19;;;;;;;7.67;1.70;;;3.80;83.80;;;;;;5111305;28;20409;-69
2021/04/08 04:57:45;;;;;;;10.27;2.10;;;3.80;83.70;;;;;;5111931;28;20058;-69
2021/04/08 05:00:11;;;;;;;8.97;1.90;;;3.80;83.60;;;;;;5111863;28;20096;-69
2021/04/08 05:02:37;;;;;;;10.07;2.17;;;3.80;83.50;;;;;;5111692;28;20077;-69
2021/04/08 05:05:04;;;;;;;7.03;2.00;;;3.80;83.60;;;;;;5111282;28;20328;-69
2021/04/08 05:07:29;;;;;;;7.07;1.93;;;3.80;83.80;;;;;;5112029;28;20293;-69
2021/04/08 05:09:55;;;;;;;8.17;1.73;;;3.80;83.80;;;;;;5110460;28;20808;-70
2021/04/08 05:12:22;;;;;;;11.37;1.40;;;3.80;83.80;;;;;;5111737;28;20108;-69
2021/04/08 05:14:49;;;;;;;5.23;2.10;;;3.80;83.60;;;;;;5111737;28;20092;-69
2021/04/08 05:17:15;;;;;;;6.63;1.53;;;3.80;83.50;;;;;;5110921;28;20321;-70
2021/04/08 05:19:40;;;;;;;9.10;1.87;;;3.80;83.50;;;;;;5111512;28;20374;-70
2021/04/08 05:22:06;;;;;;;7.33;1.93;;;3.80;83.40;;;;;;5111613;28;20405;-69
2021/04/08 05:24:32;;;;;;;7.07;1.50;;;3.90;83.30;;;;;;5110038;28;20502;-69
2021/04/08 05:26:57;;;;;;;6.00;2.20;;;3.80;83.10;;;;;;5111118;28;20047;-69
2021/04/08 05:29:24;;;;;;;6.13;1.40;;;3.80;83.20;;;;;;5111853;28;20044;-69
2021/04/08 05:31:50;;;;;;;6.97;1.70;;;3.80;83.10;;;;;;5110081;28;20305;-69
2021/04/08 05:34:16;;;;;;;5.53;1.53;;;3.80;83.20;;;;;;5108101;28;20096;-69
2021/04/08 05:36:41;;;;;;;6.50;2.27;;;3.80;83.10;;;;;;5110991;28;20039;-69
2021/04/08 05:39:07;;;;;;;5.70;1.53;;;3.80;83.20;;;;;;5113766;28;20054;-69
2021/04/08 05:41:33;;;;;;;5.47;1.87;;;3.80;83.20;;;;;;5115114;28;20059;-69
2021/04/08 05:43:58;;;;;;;7.13;1.80;;;3.80;83.10;;;;;;5114794;28;20047;-69
2021/04/08 05:46:25;;;;;;;6.23;2.27;;;3.80;83.10;;;;;;5114524;28;20039;-69
2021/04/08 05:48:51;;;;;;;5.57;1.50;;;3.80;83.10;;;;;;5115071;28;20135;-69
2021/04/08 05:51:16;;;;;;;8.30;1.70;;;3.80;83.10;;;;;;5114684;28;20396;-69
2021/04/08 05:53:42;;;;;;;6.73;1.43;;;3.80;83.10;;;;;;5113957;28;20123;-69
2021/04/08 05:56:08;;;;;;;8.47;1.20;;;3.80;83.00;;;;;;5115011;28;20388;-69
2021/04/08 05:58:33;;;;;;;5.40;1.30;;;3.80;83.10;;;;;;5114398;28;20126;-69
2021/04/08 06:00:59;;;;;;;5.70;1.47;;;3.80;83.10;;;;;;5114452;28;20052;-69
2021/04/08 06:03:25;;;;;;;8.30;1.90;;;3.80;83.10;;;;;;5115207;28;20063;-69
2021/04/08 06:05:51;;;;;;;7.57;1.57;;;3.80;83.20;;;;;;5113814;28;20070;-69
2021/04/08 06:08:18;;;;;;;7.20;1.80;;;3.80;83.30;;;;;;5114197;28;20293;-69
2021/04/08 06:10:43;;;;;;;8.53;1.53;;;3.90;83.40;;;;;;5114519;28;20726;-69
2021/04/08 06:13:09;;;;;;;6.63;2.00;;;3.90;84.30;;;;;;5114246;28;20052;-69
2021/04/08 06:15:35;;;;;;;5.10;1.63;;;4.00;83.40;;;;;;5110469;28;20043;-69
2021/04/08 06:18:01;;;;;;;6.60;1.63;;;4.00;83.10;;;;;;5114308;28;20385;-69
2021/04/08 06:20:27;;;;;;;8.53;1.80;;;4.10;83.30;;;;;;5114374;28;20051;-69
2021/04/08 06:22:53;;;;;;;6.97;2.40;;;4.10;83.20;;;;;;5114319;28;20472;-69
2021/04/08 06:25:19;;;;;;;7.23;1.93;;;4.30;83.00;;;;;;5114768;28;20116;-69
2021/04/08 06:27:45;;;;;;;4.63;1.53;;;4.40;82.70;;;;;;5114188;28;20695;-69
2021/04/08 06:30:12;;;;;;;4.57;1.70;;;4.50;82.50;;;;;;5114722;27;20293;-69
2021/04/08 06:32:38;;;;;;;8.70;2.00;;;4.60;82.40;;;;;;5114800;28;20325;-69
2021/04/08 06:35:08;;;;;;;5.93;2.20;;;4.60;82.10;;;;;;5113314;28;20297;-69
2021/04/08 06:37:34;;;;;;;8.30;1.97;;;4.70;81.60;;;;;;5114733;28;20309;-69
2021/04/08 06:40:00;;;;;;;3.37;1.20;;;4.70;81.50;;;;;;5114151;28;20285;-69
2021/04/08 06:42:27;;;;;;;8.60;1.70;;;4.70;81.40;;;;;;5113993;28;20047;-69
2021/04/08 06:44:55;;;;;;;7.40;2.17;;;4.70;81.40;;;;;;5114497;28;20043;-69
2021/04/08 06:47:33;;;;;;;8.07;1.70;;;4.70;81.40;;;;;;5114425;28;20794;-69
2021/04/08 06:50:07;;;;;;;6.30;1.60;;;4.70;81.20;;;;;;5112303;28;20376;-69
2021/04/08 06:52:33;;;;;;;12.53;2.33;;;4.80;81.30;;;;;;5114788;28;20297;-69
2021/04/08 06:54:59;;;;;;;6.30;1.50;;;4.80;81.20;;;;;;5113229;28;21154;-69
2021/04/08 06:57:25;;;;;;;9.13;8.23;;;4.80;81.00;;;;;;5114254;28;20770;-69
2021/04/08 06:59:51;;;;;;;8.93;8.20;;;4.80;80.70;;;;;;5113962;27;20778;-69
2021/04/08 07:02:20;;;;;;;7.20;2.20;;;4.90;80.80;;;;;;5113514;28;20312;-69
2021/04/08 07:04:46;;;;;;;7.77;1.53;;;4.90;80.60;;;;;;5113744;28;20047;-69
2021/04/08 07:07:16;;;;;;;6.00;1.43;;;5.00;80.40;;;;;;5114009;28;20313;-69
2021/04/08 07:09:42;;;;;;;12.07;2.27;;;5.00;80.40;;;;;;5113180;28;20851;-69
2021/04/08 07:12:10;;;;;;;9.40;1.97;;;5.00;80.50;;;;;;5113987;28;20324;-69
2021/04/08 07:14:37;;;;;;;8.93;2.17;;;5.00;80.00;;;;;;5114197;28;20839;-69
2021/04/08 07:17:10;;;;;;;6.27;1.97;;;5.10;81.00;;;;;;5112422;28;20309;-69
2021/04/08 07:19:37;;;;;;;6.30;1.53;;;5.20;80.00;;;;;;5114445;28;20634;-69
2021/04/08 07:22:03;;;;;;;6.93;1.50;;;5.20;79.80;;;;;;5113567;28;20305;-69
2021/04/08 07:24:28;;;;;;;5.80;1.43;;;5.20;79.70;;;;;;5113321;28;20324;-69
2021/04/08 07:26:59;;;;;;;5.43;1.90;;;5.30;79.50;;;;;;5113446;28;20082;-69
2021/04/08 07:29:40;;;;;;;8.47;2.00;;;5.30;79.20;;;;;;5113761;28;20044;-69
2021/04/08 07:32:07;;;;;;;5.83;1.70;;;5.30;78.80;;;;;;5112937;28;20325;-69
2021/04/08 07:34:33;;;;;;;5.43;2.27;;;5.30;78.70;;;;;;5113899;28;20297;-69
2021/04/08 07:36:59;;;;;;;5.77;1.87;;;5.30;78.60;;;;;;5112676;28;20313;-69
2021/04/08 07:39:24;;;;;;;7.70;1.63;;;5.30;78.50;;;;;;5113347;28;20737;-69
2021/04/08 07:42:02;;;;;;;4.67;1.57;;;5.30;78.60;;;;;;5113149;28;20047;-69
2021/04/08 07:44:28;;;;;;;8.33;1.50;;;5.40;78.80;;;;;;5112938;28;20071;-69
2021/04/08 07:46:55;;;;;;;3.40;1.40;;;5.40;78.90;;;;;;5112819;28;20348;-69
2021/04/08 07:49:34;;;;;;;6.13;1.40;;;5.50;78.70;;;;;;5113481;28;20051;-69
2021/04/08 07:52:20;;;;;;;5.13;1.70;;;5.50;78.80;;;;;;5112153;28;20330;-69
2021/04/08 07:55:10;;;;;;;6.00;1.60;;;5.50;78.50;;;;;;5102108;28;20383;-69
2021/04/08 07:57:56;;;;;;;5.47;1.93;;;5.60;78.20;;;;;;5113402;28;20301;-69
2021/04/08 08:00:24;;;;;;;3.57;1.33;;;5.60;78.50;;;;;;5112912;28;20298;-69
2021/04/08 08:02:51;;;;;;;5.83;1.60;;;5.60;78.40;;;;;;5112660;28;20297;-69
2021/04/08 08:05:23;;;;;;;7.30;1.50;;;5.70;78.60;;;;;;5112182;28;20294;-69
2021/04/08 08:07:51;;;;;;;4.60;1.57;;;5.70;78.40;;;;;;5112821;27;20301;-69
2021/04/08 08:10:19;;;;;;;7.27;1.60;;;5.70;77.90;;;;;;5112959;27;20317;-69
2021/04/08 08:12:48;;;;;;;5.60;1.23;;;5.80;78.30;;;;;;5112254;28;20301;-70
2021/04/08 08:15:23;;;;;;;4.43;1.40;;;5.90;78.30;;;;;;5112371;28;20305;-69
2021/04/08 08:17:50;;;;;;;8.83;1.73;;;5.90;78.20;;;;;;5112949;28;20309;-70
2021/04/08 08:20:16;;;;;;;7.00;1.60;;;6.00;77.80;;;;;;5111610;28;20842;-70
2021/04/08 08:22:43;;;;;;;5.07;1.37;;;6.20;78.30;;;;;;5112487;28;20306;-70
2021/04/08 08:25:11;;;;;;;4.13;1.57;;;6.70;78.50;;;;;;5112851;28;20301;-70
2021/04/08 08:27:49;;;;;;;6.27;1.40;;;7.20;77.10;;;;;;5111998;28;20320;-70
2021/04/08 08:30:23;;;;;;;5.07;1.50;;;7.60;76.20;;;;;;5112486;28;20293;-70
2021/04/08 08:33:18;;;;;;;9.37;1.63;;;7.90;76.20;;;;;;5112495;28;20296;-70
2021/04/08 08:35:45;;;;;;;4.73;1.90;;;8.00;74.40;;;;;;5110430;28;20301;-70
2021/04/08 08:38:14;;;;;;;7.10;1.73;;;8.00;73.60;;;;;;5112169;28;20289;-70
2021/04/08 08:40:41;;;;;;;5.70;1.43;;;7.90;73.80;;;;;;5111657;28;20305;-70
2021/04/08 08:43:09;;;;;;;6.00;1.50;;;7.80;73.30;;;;;;5111109;28;20347;-70
2021/04/08 08:45:36;;;;;;;3.83;2.00;;;7.90;73.90;;;;;;5111824;28;20316;-70
2021/04/08 08:48:06;;;;;;;6.70;1.63;;;8.00;72.40;;;;;;5110987;28;20338;-70
2021/04/08 08:50:32;;;;;;;8.23;1.50;;;8.00;72.00;;;;;;5112295;28;20695;-70
2021/04/08 08:53:00;;;;;;;5.10;1.50;;;8.10;72.20;;;;;;5111446;28;20301;-70
2021/04/08 08:55:26;;;;;;;7.63;1.90;;;8.10;72.50;;;;;;5111675;28;20319;-69
2021/04/08 08:57:54;;;;;;;5.53;1.40;;;8.10;71.70;;;;;;5111793;28;20854;-70
2021/04/08 09:00:28;;;;;;;6.33;1.50;;;8.10;71.40;;;;;;5112179;28;20301;-70
2021/04/08 09:02:58;;;;;;;5.23;1.50;;;8.00;71.60;;;;;;5110809;28;20563;-70
2021/04/08 09:05:28;;;;;;;5.53;1.40;;;8.00;71.50;;;;;;5111974;28;20297;-70
2021/04/08 09:07:58;;;;;;;5.93;1.63;;;7.90;71.70;;;;;;5111995;28;20354;-70
2021/04/08 09:10:31;;;;;;;6.93;1.73;;;7.80;72.30;;;;;;5111310;28;20321;-70
2021/04/08 09:12:57;;;;;;;6.17;1.13;;;7.80;72.40;;;;;;5111006;28;20303;-69
2021/04/08 09:15:23;;;;;;;9.40;2.27;;;7.80;72.50;;;;;;5111158;28;20368;-70
2021/04/08 09:17:56;;;;;;;6.03;1.50;;;7.80;72.70;;;;;;5111335;28;20089;-70
2021/04/08 09:20:24;;;;;;;9.63;1.80;;;7.80;72.20;;;;;;5112146;28;20707;-70
2021/04/08 09:23:13;;;;;;;6.83;1.60;;;7.80;72.00;;;;;;5111104;28;20392;-70
2021/04/08 09:25:52;;;;;;;8.13;2.17;;;7.80;71.60;;;;;;5112166;28;20654;-70
2021/04/08 09:28:18;;;;;;;8.00;2.40;;;7.80;71.30;;;;;;5111476;28;20370;-70
2021/04/08 09:31:04;;;;;;;11.57;2.43;;;7.80;71.70;;;;;;5110829;28;20336;-70
2021/04/08 09:33:42;;;;;;;7.90;1.97;;;7.80;71.90;;;;;;5111992;28;20432;-70
2021/04/08 09:36:23;;;;;;;10.53;2.40;;;7.90;72.10;;;;;;5111351;28;20316;-69
2021/04/08 09:39:12;;;;;;;9.93;2.60;;;8.00;71.60;;;;;;5110494;28;20777;-69
2021/04/08 09:41:55;;;;;;;4.60;1.70;;;8.00;71.20;;;;;;5111549;28;20047;-69
2021/04/08 09:44:22;;;;;;;8.43;2.70;;;8.10;71.50;;;;;;5110827;28;20804;-69
2021/04/08 09:47:00;;;;;;;8.17;2.53;;;8.20;71.80;;;;;;5111288;28;20313;-70
2021/04/08 09:49:40;;;;;;;7.90;2.43;;;8.30;72.20;;;;;;5111487;28;20774;-69
2021/04/08 09:52:07;;;;;;;7.43;2.57;;;8.60;70.80;;;;;;5110622;28;20301;-70
2021/04/08 09:54:57;;;;;;;5.37;3.03;;;8.80;70.60;;;;;;5111299;28;20846;-69
2021/04/08 09:57:40;;;;;;;6.43;2.20;;;8.90;69.90;;;;;;5111496;28;20393;-70
2021/04/08 10:00:09;;;;;;;9.80;3.10;;;9.00;69.90;;;;;;5110827;28;20692;-69
2021/04/08 10:02:35;;;;;;;11.30;2.80;;;9.00;68.20;;;;;;5111313;28;20315;-68
2021/04/08 10:05:06;;;;;;;9.80;2.23;;;8.90;68.60;;;;;;5110380;28;20326;-70
2021/04/08 10:07:58;;;;;;;7.15;2.10;;;8.90;68.00;;;;;;5111350;28;20337;-69
2021/04/08 10:10:45;;;;;;;8.73;2.35;;;8.80;67.80;;;;;;5111550;28;20055;-70
2021/04/08 10:13:21;;;;;;;6.00;2.53;;;8.80;65.40;;;;;;5109912;28;20082;-70
2021/04/08 10:15:47;;;;;;;5.00;1.87;;;8.70;67.00;;;;;;5110785;28;20309;-68
2021/04/08 10:18:22;;;;;;;5.47;2.27;;;8.50;65.50;;;;;;5110902;28;20289;-68
2021/04/08 10:21:14;;;;;;;7.47;2.70;;;8.30;64.10;;;;;;5110024;28;20277;-70
2021/04/08 10:24:00;;;;;;;8.48;2.30;;;8.20;65.10;;;;;;5110065;28;20286;-69
2021/04/08 10:26:46;;;;;;;7.10;2.70;;;8.00;65.30;;;;;;5112999;28;20043;-70
2021/04/08 10:29:33;;;;;;;4.60;2.20;;;8.00;65.60;;;;;;5112588;28;20282;-67
2021/04/08 10:31:59;;;;;;;8.13;2.33;;;8.00;66.00;;;;;;5106410;27;20392;-69
2021/04/08 10:34:36;;;;;;;7.63;2.80;;;8.10;65.50;;;;;;5110073;28;20733;-70
2021/04/08 10:37:03;;;;;;;8.00;2.87;;;8.10;64.40;;;;;;5110894;27;20051;-70
2021/04/08 10:39:34;;;;;;;5.80;2.60;;;8.10;63.80;;;;;;5111894;28;20308;-68
2021/04/08 10:42:02;;;;;;;7.15;2.53;;;8.20;63.00;;;;;;5110674;28;20286;-70
2021/04/08 10:44:33;;;;;;;8.13;2.43;;;8.30;63.00;;;;;;5111785;28;20051;-68
2021/04/08 10:47:10;;;;;;;8.27;2.80;;;8.40;62.20;;;;;;5110122;28;20321;-69
2021/04/08 10:49:42;;;;;;;7.40;3.17;;;8.50;61.40;;;;;;5110944;28;20567;-68
2021/04/08 10:52:12;;;;;;;7.97;2.80;;;8.70;61.40;;;;;;5111500;28;20305;-67
2021/04/08 10:54:40;;;;;;;7.10;2.90;;;8.80;60.00;;;;;;5110736;28;20051;-68
2021/04/08 10:57:07;;;;;;;4.90;2.93;;;8.90;59.40;;;;;;5110854;28;20301;-68
2021/04/08 10:59:33;;;;;;;6.63;3.10;;;9.00;59.50;;;;;;5111091;28;20842;-68
2021/04/08 11:02:01;;;;;;;8.03;2.87;;;9.10;58.00;;;;;;5110033;28;20783;-68
2021/04/08 11:04:26;;;;;;;6.43;4.33;;;9.30;58.40;;;;;;5111061;28;20328;-68
2021/04/08 11:06:56;;;;;;;6.10;3.07;;;9.50;57.30;;;;;;5110759;28;20390;-68
2021/04/08 11:09:23;;;;;;;7.73;3.93;;;9.50;57.00;;;;;;5110298;28;20043;-68
2021/04/08 11:11:51;;;;;;;8.07;3.80;;;9.50;56.60;;;;;;5111137;28;20297;-68
2021/04/08 11:14:24;;;;;;;7.03;3.53;;;9.40;55.70;;;;;;5110498;28;20325;-68
2021/04/08 11:16:52;;;;;;;6.07;3.20;;;9.40;54.50;;;;;;5110094;28;20329;-68
2021/04/08 11:19:18;;;;;;;5.70;3.07;;;9.40;55.50;;;;;;5111000;28;20354;-68
2021/04/08 11:21:44;;;;;;;4.33;3.13;;;9.40;55.40;;;;;;5110932;28;20673;-68
2021/04/08 11:24:11;;;;;;;6.13;4.03;;;9.40;53.40;;;;;;5109778;28;20639;-69
2021/04/08 11:26:51;;;;;;;6.40;3.73;;;9.30;54.00;;;;;;5110673;28;20404;-69
2021/04/08 11:29:21;;;;;;;5.07;3.50;;;9.40;52.40;;;;;;5110176;28;20384;-67
2021/04/08 11:32:06;;;;;;;6.40;3.90;;;9.30;52.50;;;;;;5110243;28;20293;-68
2021/04/08 11:34:50;;;;;;;6.43;4.10;;;9.30;51.00;;;;;;5110144;28;20388;-69
2021/04/08 11:37:17;;;;;;;5.57;3.70;;;9.30;52.00;;;;;;5109136;28;20301;-70
2021/04/08 11:39:45;;;;;;;5.97;4.10;;;9.30;53.00;;;;;;5110116;28;20385;-67
2021/04/08 11:42:23;;;;;;;7.77;4.07;;;9.40;53.00;;;;;;5110602;28;20290;-68
2021/04/08 11:44:52;;;;;;;6.97;4.53;;;9.50;51.70;;;;;;5109233;28;20305;-68
2021/04/08 11:47:23;;;;;;;8.53;4.57;;;9.50;52.40;;;;;;5109537;28;20320;-68
2021/04/08 11:49:50;;;;;;;6.03;4.13;;;9.40;51.70;;;;;;5109688;28;20301;-67
2021/04/08 11:52:19;;;;;;;6.73;4.50;;;9.40;52.50;;;;;;5109588;28;20290;-66
2021/04/08 11:55:10;;;;;;;6.33;5.13;;;9.50;52.10;;;;;;5109877;28;20333;-67
2021/04/08 11:57:36;;;;;;;5.37;4.33;;;9.50;51.60;;;;;;5109742;28;20371;-67
2021/04/08 12:00:11;;;;;;;8.20;5.37;;;9.40;51.70;;;;;;5109729;28;20285;-67
2021/04/08 12:02:37;;;;;;;9.77;6.03;;;9.50;52.10;;;;;;5110339;28;20833;-68
2021/04/08 12:05:13;;;;;;;9.23;6.07;;;9.40;51.80;;;;;;5108521;28;20297;-67
2021/04/08 12:07:43;;;;;;;8.97;5.70;;;9.40;51.40;;;;;;5109804;28;20313;-67
2021/04/08 12:10:29;;;;;;;9.20;5.53;;;9.30;52.30;;;;;;5109270;28;20301;-67
2021/04/08 12:12:58;;;;;;;8.47;5.80;;;9.40;51.30;;;;;;5108747;28;20310;-67
2021/04/08 12:15:39;;;;;;;8.83;6.27;;;9.40;51.90;;;;;;5109686;28;20192;-67
2021/04/08 12:18:17;;;;;;;10.23;6.30;;;9.40;51.40;;;;;;5109066;28;20324;-67
2021/04/08 12:20:44;;;;;;;7.50;6.20;;;9.40;51.60;;;;;;5109161;28;20488;-67
2021/04/08 12:23:12;;;;;;;10.47;6.73;;;9.40;52.50;;;;;;5109157;28;20305;-67
2021/04/08 12:25:42;;;;;;;7.90;6.20;;;9.60;52.10;;;;;;5108893;28;21019;-66
2021/04/08 12:28:08;;;;;;;9.03;6.40;;;9.60;52.20;;;;;;5109267;28;20301;-67
2021/04/08 12:30:33;;;;;;;9.10;7.27;;;9.60;53.10;;;;;;5109357;28;20831;-67
2021/04/08 12:32:59;;;;;;;7.33;6.37;;;9.70;52.80;;;;;;5106305;28;20067;-69
2021/04/08 12:35:25;;;;;;;9.37;6.73;;;9.70;52.20;;;;;;5109071;28;20054;-69
2021/04/08 12:37:50;;;;;;;7.33;6.63;;;9.60;52.20;;;;;;5108550;28;20104;-71
2021/04/08 12:40:16;;;;;;;11.27;7.37;;;9.60;52.20;;;;;;5108116;28;20043;-69
2021/04/08 12:42:43;;;;;;;10.23;7.77;;;9.50;52.20;;;;;;5109357;28;20101;-71
2021/04/08 12:45:10;;;;;;;10.70;7.50;;;9.50;52.50;;;;;;5108917;28;20549;-70
2021/04/08 12:47:36;;;;;;;9.87;7.60;;;9.70;53.20;;;;;;5107838;28;20331;-69
2021/04/08 12:50:01;;;;;;;8.90;8.00;;;9.80;53.20;;;;;;5108274;28;20297;-69
2021/04/08 12:52:27;;;;;;;10.73;9.50;;;9.90;52.50;;;;;;5109299;28;20389;-69
2021/04/08 12:54:52;;;;;;;10.70;8.97;;;10.00;52.30;;;;;;5107859;28;20472;-69
2021/04/08 12:57:18;;;;;;;10.27;7.67;;;10.10;52.20;;;;;;5108267;28;20047;-69
2021/04/08 12:59:44;;;;;;;10.43;8.53;;;10.20;51.70;;;;;;5109130;28;20141;-69
2021/04/08 13:02:09;;;;;;;9.73;8.47;;;10.20;51.80;;;;;;5107649;28;20051;-71
2021/04/08 13:04:35;;;;;;;11.40;8.77;;;10.20;51.80;;;;;;5108373;28;20054;-71
2021/04/08 13:07:01;;;;;;;10.20;9.27;;;10.20;52.10;;;;;;5105688;28;20108;-70